sensor_id;sensor_type;location;lat;lon;timestamp;pressure;altitude;pressure_sealevel;temperature;humidity
25420;BME280;13354;48.174;11.566;2022-12-29T00:02:11;95530.00;;;6.07;57.07
25420;BME280;13354;48.174;11.566;2022-12-29T00:04:36;95533.78;;;5.96;57.13
25420;BME280;13354;48.174;11.566;2022-12-29T00:07:02;95531.50;;;6.01;57.36
25420;BME280;13354;48.174;11.566;2022-12-29T00:09:30;95522.31;;;5.97;56.92
25420;BME280;13354;48.174;11.566;2022-12-29T00:11:55;95518.66;;;6.06;57.02
25420;BME280;13354;48.174;11.566;2022-12-29T00:14:21;95524.94;;;6.05;57.04
25420;BME280;13354;48.174;11.566;2022-12-29T00:17:05;95512.94;;;6.02;56.95
25420;BME280;13354;48.174;11.566;2022-12-29T00:19:30;95514.91;;;6.09;56.72
25420;BME280;13354;48.174;11.566;2022-12-29T00:22:14;95512.41;;;6.07;56.46
25420;BME280;13354;48.174;11.566;2022-12-29T00:24:59;95510.97;;;6.04;57.16
25420;BME280;13354;48.174;11.566;2022-12-29T00:27:31;95511.75;;;6.13;56.20
25420;BME280;13354;48.174;11.566;2022-12-29T00:30:18;95512.25;;;6.17;56.84
25420;BME280;13354;48.174;11.566;2022-12-29T00:33:29;95514.84;;;6.25;55.20
25420;BME280;13354;48.174;11.566;2022-12-29T00:38:50;95517.97;;;6.20;55.30
25420;BME280;13354;48.174;11.566;2022-12-29T00:41:34;95508.94;;;6.23;55.51
25420;BME280;13354;48.174;11.566;2022-12-29T00:44:18;95514.84;;;6.25;55.00
25420;BME280;13354;48.174;11.566;2022-12-29T00:46:44;95515.50;;;6.27;54.76
25420;BME280;13354;48.174;11.566;2022-12-29T00:49:12;95501.22;;;6.21;55.23
25420;BME280;13354;48.174;11.566;2022-12-29T00:52:04;95506.66;;;6.20;55.56
25420;BME280;13354;48.174;11.566;2022-12-29T00:54:36;95505.13;;;6.25;55.17
25420;BME280;13354;48.174;11.566;2022-12-29T00:57:03;95514.06;;;6.16;55.58
25420;BME280;13354;48.174;11.566;2022-12-29T00:59:29;95506.66;;;6.20;54.91
25420;BME280;13354;48.174;11.566;2022-12-29T01:01:54;95512.06;;;6.18;55.04
25420;BME280;13354;48.174;11.566;2022-12-29T01:04:22;95514.38;;;6.13;55.62
25420;BME280;13354;48.174;11.566;2022-12-29T01:06:48;95513.72;;;6.11;55.24
25420;BME280;13354;48.174;11.566;2022-12-29T01:09:13;95515.69;;;6.17;54.76
25420;BME280;13354;48.174;11.566;2022-12-29T01:11:58;95516.84;;;6.23;54.72
25420;BME280;13354;48.174;11.566;2022-12-29T01:14:24;95517.09;;;6.36;54.66
25420;BME280;13354;48.174;11.566;2022-12-29T01:16:49;95519.28;;;6.24;54.43
25420;BME280;13354;48.174;11.566;2022-12-29T01:19:16;95524.06;;;6.21;54.75
25420;BME280;13354;48.174;11.566;2022-12-29T01:21:41;95525.56;;;6.15;54.72
25420;BME280;13354;48.174;11.566;2022-12-29T01:24:07;95514.56;;;6.12;54.90
25420;BME280;13354;48.174;11.566;2022-12-29T01:26:33;95520.28;;;6.23;54.88
25420;BME280;13354;48.174;11.566;2022-12-29T01:28:58;95520.56;;;6.37;54.62
25420;BME280;13354;48.174;11.566;2022-12-29T01:31:23;95521.91;;;6.24;54.63
25420;BME280;13354;48.174;11.566;2022-12-29T01:33:48;95519.97;;;6.10;54.75
25420;BME280;13354;48.174;11.566;2022-12-29T01:36:16;95527.22;;;6.08;55.18
25420;BME280;13354;48.174;11.566;2022-12-29T01:38:42;95522.09;;;6.15;55.22
25420;BME280;13354;48.174;11.566;2022-12-29T01:41:09;95522.25;;;6.21;54.25
25420;BME280;13354;48.174;11.566;2022-12-29T01:43:51;95517.31;;;6.26;54.39
25420;BME280;13354;48.174;11.566;2022-12-29T01:51:25;95515.47;;;6.35;54.13
25420;BME280;13354;48.174;11.566;2022-12-29T01:53:54;95528.09;;;6.40;53.60
25420;BME280;13354;48.174;11.566;2022-12-29T01:56:21;95521.22;;;6.39;53.88
25420;BME280;13354;48.174;11.566;2022-12-29T01:58:53;95519.94;;;6.26;54.38
25420;BME280;13354;48.174;11.566;2022-12-29T02:01:21;95516.66;;;6.24;54.13
25420;BME280;13354;48.174;11.566;2022-12-29T02:03:47;95514.00;;;6.33;53.64
25420;BME280;13354;48.174;11.566;2022-12-29T02:06:28;95516.94;;;6.29;53.54
25420;BME280;13354;48.174;11.566;2022-12-29T02:08:55;95516.13;;;6.29;53.43
25420;BME280;13354;48.174;11.566;2022-12-29T02:11:23;95503.97;;;6.36;53.73
25420;BME280;13354;48.174;11.566;2022-12-29T02:13:50;95499.22;;;6.32;53.44
25420;BME280;13354;48.174;11.566;2022-12-29T02:16:29;95496.47;;;6.17;54.00
25420;BME280;13354;48.174;11.566;2022-12-29T02:24:50;95504.66;;;6.30;53.85
25420;BME280;13354;48.174;11.566;2022-12-29T02:27:31;95508.25;;;6.29;53.35
25420;BME280;13354;48.174;11.566;2022-12-29T02:30:42;95504.81;;;6.28;53.78
25420;BME280;13354;48.174;11.566;2022-12-29T02:36:19;95505.31;;;6.24;54.04
25420;BME280;13354;48.174;11.566;2022-12-29T02:38:59;95510.41;;;6.25;53.70
25420;BME280;13354;48.174;11.566;2022-12-29T02:44:24;95495.00;;;6.22;53.28
25420;BME280;13354;48.174;11.566;2022-12-29T02:47:00;95495.63;;;6.24;53.34
25420;BME280;13354;48.174;11.566;2022-12-29T02:49:38;95487.75;;;6.24;53.40
25420;BME280;13354;48.174;11.566;2022-12-29T02:52:14;95492.97;;;6.33;52.59
25420;BME280;13354;48.174;11.566;2022-12-29T02:54:41;95496.25;;;6.35;52.76
25420;BME280;13354;48.174;11.566;2022-12-29T02:59:53;95486.50;;;6.43;52.18
25420;BME280;13354;48.174;11.566;2022-12-29T03:07:42;95482.34;;;6.18;53.33
25420;BME280;13354;48.174;11.566;2022-12-29T03:10:33;95479.00;;;6.32;52.68
25420;BME280;13354;48.174;11.566;2022-12-29T03:16:20;95484.53;;;6.45;51.70
25420;BME280;13354;48.174;11.566;2022-12-29T03:21:25;95459.19;;;6.52;51.57
25420;BME280;13354;48.174;11.566;2022-12-29T03:24:12;95452.81;;;6.47;51.76
25420;BME280;13354;48.174;11.566;2022-12-29T03:26:39;95450.66;;;6.50;52.04
25420;BME280;13354;48.174;11.566;2022-12-29T03:29:06;95455.59;;;6.76;51.44
25420;BME280;13354;48.174;11.566;2022-12-29T03:31:34;95460.53;;;6.80;50.66
25420;BME280;13354;48.174;11.566;2022-12-29T03:34:01;95448.38;;;6.78;50.24
25420;BME280;13354;48.174;11.566;2022-12-29T03:36:35;95454.38;;;6.87;50.07
25420;BME280;13354;48.174;11.566;2022-12-29T03:39:09;95445.91;;;6.77;50.37
25420;BME280;13354;48.174;11.566;2022-12-29T03:41:37;95448.50;;;6.85;50.24
25420;BME280;13354;48.174;11.566;2022-12-29T03:44:06;95451.41;;;6.90;49.96
25420;BME280;13354;48.174;11.566;2022-12-29T03:46:31;95445.41;;;7.05;49.78
25420;BME280;13354;48.174;11.566;2022-12-29T03:48:57;95452.88;;;6.93;49.65
25420;BME280;13354;48.174;11.566;2022-12-29T03:51:22;95452.75;;;7.09;49.79
25420;BME280;13354;48.174;11.566;2022-12-29T03:53:47;95461.31;;;7.11;49.41
25420;BME280;13354;48.174;11.566;2022-12-29T03:56:13;95451.28;;;7.07;49.45
25420;BME280;13354;48.174;11.566;2022-12-29T03:58:38;95444.13;;;7.00;49.32
25420;BME280;13354;48.174;11.566;2022-12-29T04:01:03;95452.63;;;7.02;49.62
25420;BME280;13354;48.174;11.566;2022-12-29T04:03:28;95446.75;;;7.00;49.47
25420;BME280;13354;48.174;11.566;2022-12-29T04:05:54;95460.38;;;7.04;49.23
25420;BME280;13354;48.174;11.566;2022-12-29T04:08:19;95453.56;;;7.10;48.88
25420;BME280;13354;48.174;11.566;2022-12-29T04:10:44;95443.22;;;7.08;49.23
25420;BME280;13354;48.174;11.566;2022-12-29T04:13:09;95465.09;;;7.09;49.09
25420;BME280;13354;48.174;11.566;2022-12-29T04:15:35;95448.16;;;7.11;48.80
25420;BME280;13354;48.174;11.566;2022-12-29T04:18:00;95448.16;;;7.11;49.18
25420;BME280;13354;48.174;11.566;2022-12-29T04:20:25;95447.50;;;7.09;49.11
25420;BME280;13354;48.174;11.566;2022-12-29T04:23:09;95450.53;;;7.21;48.40
25420;BME280;13354;48.174;11.566;2022-12-29T04:25:34;95447.72;;;7.22;48.74
25420;BME280;13354;48.174;11.566;2022-12-29T04:28:00;95450.06;;;7.17;48.80
25420;BME280;13354;48.174;11.566;2022-12-29T04:30:25;95448.25;;;7.18;49.06
25420;BME280;13354;48.174;11.566;2022-12-29T04:32:50;95450.06;;;7.17;49.23
25420;BME280;13354;48.174;11.566;2022-12-29T04:35:16;95442.34;;;7.16;48.75
25420;BME280;13354;48.174;11.566;2022-12-29T04:37:41;95438.13;;;7.30;48.85
25420;BME280;13354;48.174;11.566;2022-12-29T04:40:07;95438.56;;;7.18;48.73
25420;BME280;13354;48.174;11.566;2022-12-29T04:42:33;95451.66;;;7.26;48.19
25420;BME280;13354;48.174;11.566;2022-12-29T04:44:58;95438.19;;;7.21;48.29
25420;BME280;13354;48.174;11.566;2022-12-29T04:47:23;95439.28;;;7.27;48.45
25420;BME280;13354;48.174;11.566;2022-12-29T04:49:49;95442.34;;;7.16;48.98
25420;BME280;13354;48.174;11.566;2022-12-29T04:52:14;95444.03;;;7.32;47.97
25420;BME280;13354;48.174;11.566;2022-12-29T04:54:39;95433.97;;;7.35;48.30
25420;BME280;13354;48.174;11.566;2022-12-29T04:57:05;95441.81;;;7.20;48.74
25420;BME280;13354;48.174;11.566;2022-12-29T04:59:30;95436.25;;;7.38;47.93
25420;BME280;13354;48.174;11.566;2022-12-29T05:01:55;95442.13;;;7.25;48.57
25420;BME280;13354;48.174;11.566;2022-12-29T05:04:21;95436.31;;;7.30;48.43
25420;BME280;13354;48.174;11.566;2022-12-29T05:06:47;95438.19;;;7.21;48.76
25420;BME280;13354;48.174;11.566;2022-12-29T05:09:12;95441.97;;;7.42;48.15
25420;BME280;13354;48.174;11.566;2022-12-29T05:11:38;95446.34;;;7.49;47.99
25420;BME280;13354;48.174;11.566;2022-12-29T05:14:03;95446.22;;;7.43;48.08
25420;BME280;13354;48.174;11.566;2022-12-29T05:16:28;95447.50;;;7.47;47.86
25420;BME280;13354;48.174;11.566;2022-12-29T05:18:54;95449.63;;;7.52;47.67
25420;BME280;13354;48.174;11.566;2022-12-29T05:21:19;95450.28;;;7.68;47.23
25420;BME280;13354;48.174;11.566;2022-12-29T05:23:44;95446.84;;;7.68;47.42
25420;BME280;13354;48.174;11.566;2022-12-29T05:26:09;95452.78;;;7.47;48.11
25420;BME280;13354;48.174;11.566;2022-12-29T05:28:35;95456.09;;;7.64;47.76
25420;BME280;13354;48.174;11.566;2022-12-29T05:31:00;95455.84;;;7.73;46.75
25420;BME280;13354;48.174;11.566;2022-12-29T05:33:25;95448.94;;;7.72;47.28
25420;BME280;13354;48.174;11.566;2022-12-29T05:35:51;95446.53;;;7.48;48.26
25420;BME280;13354;48.174;11.566;2022-12-29T05:38:16;95444.72;;;7.48;48.18
25420;BME280;13354;48.174;11.566;2022-12-29T05:40:42;95442.47;;;7.60;47.32
25420;BME280;13354;48.174;11.566;2022-12-29T05:43:08;95444.66;;;7.71;47.65
25420;BME280;13354;48.174;11.566;2022-12-29T05:45:33;95447.50;;;7.85;47.43
25420;BME280;13354;48.174;11.566;2022-12-29T05:47:58;95438.66;;;7.63;48.06
25420;BME280;13354;48.174;11.566;2022-12-29T05:50:24;95437.66;;;7.64;47.64
25420;BME280;13354;48.174;11.566;2022-12-29T05:52:49;95440.50;;;7.77;47.25
25420;BME280;13354;48.174;11.566;2022-12-29T05:55:14;95445.47;;;7.72;47.59
25420;BME280;13354;48.174;11.566;2022-12-29T05:57:39;95448.22;;;7.79;47.36
25420;BME280;13354;48.174;11.566;2022-12-29T06:00:05;95442.69;;;7.73;47.56
25420;BME280;13354;48.174;11.566;2022-12-29T06:02:31;95441.31;;;7.78;47.46
25420;BME280;13354;48.174;11.566;2022-12-29T06:04:56;95437.47;;;7.80;47.96
25420;BME280;13354;48.174;11.566;2022-12-29T06:07:22;95440.56;;;7.69;47.76
25420;BME280;13354;48.174;11.566;2022-12-29T06:09:47;95440.38;;;7.56;48.13
25420;BME280;13354;48.174;11.566;2022-12-29T06:12:12;95442.66;;;7.59;48.36
25420;BME280;13354;48.174;11.566;2022-12-29T06:14:37;95444.94;;;7.39;49.64
25420;BME280;13354;48.174;11.566;2022-12-29T06:17:03;95450.09;;;7.55;48.63
25420;BME280;13354;48.174;11.566;2022-12-29T06:19:28;95440.03;;;7.59;48.70
25420;BME280;13354;48.174;11.566;2022-12-29T06:21:53;95437.09;;;7.54;49.06
25420;BME280;13354;48.174;11.566;2022-12-29T06:24:20;95442.16;;;7.40;49.10
25420;BME280;13354;48.174;11.566;2022-12-29T06:26:45;95448.75;;;7.36;49.36
25420;BME280;13354;48.174;11.566;2022-12-29T06:29:10;95450.44;;;7.52;49.12
25420;BME280;13354;48.174;11.566;2022-12-29T06:31:36;95451.19;;;7.61;49.01
25420;BME280;13354;48.174;11.566;2022-12-29T06:34:01;95449.16;;;7.48;48.83
25420;BME280;13354;48.174;11.566;2022-12-29T06:36:28;95441.72;;;7.52;48.90
25420;BME280;13354;48.174;11.566;2022-12-29T06:38:53;95439.38;;;7.57;49.09
25420;BME280;13354;48.174;11.566;2022-12-29T06:41:19;95440.38;;;7.56;48.66
25420;BME280;13354;48.174;11.566;2022-12-29T06:43:45;95438.72;;;7.55;49.10
25420;BME280;13354;48.174;11.566;2022-12-29T06:46:10;95434.28;;;7.55;49.02
25420;BME280;13354;48.174;11.566;2022-12-29T06:48:35;95437.72;;;7.41;49.44
25420;BME280;13354;48.174;11.566;2022-12-29T06:51:01;95443.22;;;7.31;49.22
25420;BME280;13354;48.174;11.566;2022-12-29T06:53:26;95441.50;;;7.38;49.25
25420;BME280;13354;48.174;11.566;2022-12-29T06:55:51;95445.78;;;7.39;49.18
25420;BME280;13354;48.174;11.566;2022-12-29T06:58:17;95450.41;;;7.37;49.29
25420;BME280;13354;48.174;11.566;2022-12-29T07:00:42;95446.13;;;7.36;49.19
25420;BME280;13354;48.174;11.566;2022-12-29T07:03:07;95430.75;;;7.25;49.15
25420;BME280;13354;48.174;11.566;2022-12-29T07:05:32;95446.13;;;7.36;49.39
25420;BME280;13354;48.174;11.566;2022-12-29T07:07:58;95450.91;;;7.33;49.69
25420;BME280;13354;48.174;11.566;2022-12-29T07:10:23;95460.63;;;7.32;49.43
25420;BME280;13354;48.174;11.566;2022-12-29T07:12:49;95461.44;;;7.33;49.34
25420;BME280;13354;48.174;11.566;2022-12-29T07:15:14;95473.53;;;7.27;49.87
25420;BME280;13354;48.174;11.566;2022-12-29T07:17:40;95471.75;;;7.42;49.03
25420;BME280;13354;48.174;11.566;2022-12-29T07:20:06;95476.09;;;7.35;49.03
25420;BME280;13354;48.174;11.566;2022-12-29T07:22:31;95481.13;;;7.45;49.09
25420;BME280;13354;48.174;11.566;2022-12-29T07:24:56;95472.50;;;7.51;48.81
25420;BME280;13354;48.174;11.566;2022-12-29T07:27:22;95485.63;;;7.59;48.10
25420;BME280;13354;48.174;11.566;2022-12-29T07:29:47;95477.63;;;7.67;48.18
25420;BME280;13354;48.174;11.566;2022-12-29T07:32:12;95476.44;;;7.55;48.34
25420;BME280;13354;48.174;11.566;2022-12-29T07:34:38;95482.25;;;7.65;48.38
25420;BME280;13354;48.174;11.566;2022-12-29T07:37:05;95482.09;;;7.67;48.46
25420;BME280;13354;48.174;11.566;2022-12-29T07:39:30;95483.03;;;7.51;49.57
25420;BME280;13354;48.174;11.566;2022-12-29T07:41:55;95487.03;;;7.47;49.54
25420;BME280;13354;48.174;11.566;2022-12-29T07:44:20;95487.22;;;7.45;49.70
25420;BME280;13354;48.174;11.566;2022-12-29T07:46:46;95488.97;;;7.53;49.42
25420;BME280;13354;48.174;11.566;2022-12-29T07:49:11;95489.16;;;7.52;49.24
25420;BME280;13354;48.174;11.566;2022-12-29T07:51:37;95490.66;;;7.46;49.64
25420;BME280;13354;48.174;11.566;2022-12-29T07:54:02;95487.91;;;7.62;49.09
25420;BME280;13354;48.174;11.566;2022-12-29T07:56:27;95488.09;;;7.75;48.80
25420;BME280;13354;48.174;11.566;2022-12-29T07:58:53;95488.53;;;7.64;49.15
25420;BME280;13354;48.174;11.566;2022-12-29T08:01:18;95496.94;;;7.83;48.55
25420;BME280;13354;48.174;11.566;2022-12-29T08:03:43;95494.19;;;7.76;48.82
25420;BME280;13354;48.174;11.566;2022-12-29T08:06:10;95490.13;;;7.88;48.71
25420;BME280;13354;48.174;11.566;2022-12-29T08:08:35;95484.88;;;8.03;47.88
25420;BME280;13354;48.174;11.566;2022-12-29T08:11:01;95491.44;;;8.07;47.94
25420;BME280;13354;48.174;11.566;2022-12-29T08:13:26;95485.59;;;8.27;46.99
25420;BME280;13354;48.174;11.566;2022-12-29T08:15:51;95486.06;;;8.30;47.46
25420;BME280;13354;48.174;11.566;2022-12-29T08:18:16;95484.88;;;8.33;47.20
25420;BME280;13354;48.174;11.566;2022-12-29T08:20:42;95489.16;;;8.34;46.68
25420;BME280;13354;48.174;11.566;2022-12-29T08:23:07;95492.81;;;8.48;46.39
25420;BME280;13354;48.174;11.566;2022-12-29T08:25:32;95491.16;;;8.61;46.19
25420;BME280;13354;48.174;11.566;2022-12-29T08:27:58;95482.25;;;8.62;46.04
25420;BME280;13354;48.174;11.566;2022-12-29T08:30:23;95484.41;;;8.74;45.79
25420;BME280;13354;48.174;11.566;2022-12-29T08:32:48;95483.59;;;8.73;46.10
25420;BME280;13354;48.174;11.566;2022-12-29T08:35:14;95477.75;;;8.78;45.97
25420;BME280;13354;48.174;11.566;2022-12-29T08:37:39;95484.94;;;8.84;45.68
25420;BME280;13354;48.174;11.566;2022-12-29T08:40:05;95478.34;;;8.94;45.66
25420;BME280;13354;48.174;11.566;2022-12-29T08:42:31;95475.28;;;9.12;45.50
25420;BME280;13354;48.174;11.566;2022-12-29T08:44:57;95481.00;;;9.37;44.20
25420;BME280;13354;48.174;11.566;2022-12-29T08:47:23;95485.28;;;9.60;44.71
25420;BME280;13354;48.174;11.566;2022-12-29T08:49:49;95483.78;;;9.51;44.52
25420;BME280;13354;48.174;11.566;2022-12-29T08:52:14;95492.66;;;9.43;44.47
25420;BME280;13354;48.174;11.566;2022-12-29T08:54:39;95490.31;;;9.33;44.54
25420;BME280;13354;48.174;11.566;2022-12-29T08:57:05;95494.03;;;9.17;45.06
25420;BME280;13354;48.174;11.566;2022-12-29T08:59:30;95495.09;;;9.23;45.04
25420;BME280;13354;48.174;11.566;2022-12-29T09:01:55;95494.94;;;9.25;44.70
25420;BME280;13354;48.174;11.566;2022-12-29T09:04:20;95496.56;;;9.47;43.97
25420;BME280;13354;48.174;11.566;2022-12-29T09:06:46;95506.41;;;9.60;43.48
25420;BME280;13354;48.174;11.566;2022-12-29T09:09:11;95504.41;;;9.83;42.51
25420;BME280;13354;48.174;11.566;2022-12-29T09:11:37;95506.47;;;9.88;42.95
25420;BME280;13354;48.174;11.566;2022-12-29T09:14:03;95496.50;;;10.18;41.78
25420;BME280;13354;48.174;11.566;2022-12-29T09:16:29;95505.00;;;10.35;41.08
25420;BME280;13354;48.174;11.566;2022-12-29T09:18:54;95507.28;;;10.45;40.62
25420;BME280;13354;48.174;11.566;2022-12-29T09:21:19;95509.56;;;10.54;40.52
25420;BME280;13354;48.174;11.566;2022-12-29T09:23:45;95510.81;;;10.58;40.59
25420;BME280;13354;48.174;11.566;2022-12-29T09:26:10;95505.31;;;10.60;40.43
25420;BME280;13354;48.174;11.566;2022-12-29T09:28:36;95506.97;;;10.61;39.94
25420;BME280;13354;48.174;11.566;2022-12-29T09:31:02;95503.50;;;10.60;40.23
25420;BME280;13354;48.174;11.566;2022-12-29T09:33:27;95516.91;;;10.59;40.22
25420;BME280;13354;48.174;11.566;2022-12-29T09:35:57;95512.06;;;10.62;40.34
25420;BME280;13354;48.174;11.566;2022-12-29T09:38:23;95508.41;;;10.70;40.12
25420;BME280;13354;48.174;11.566;2022-12-29T09:40:52;95508.47;;;10.77;40.36
25420;BME280;13354;48.174;11.566;2022-12-29T09:46:32;95499.09;;;10.81;39.84
25420;BME280;13354;48.174;11.566;2022-12-29T09:51:53;95493.16;;;10.72;40.11
25420;BME280;13354;48.174;11.566;2022-12-29T09:54:37;95494.72;;;10.53;40.10
25420;BME280;13354;48.174;11.566;2022-12-29T09:57:05;95493.84;;;10.46;40.19
25420;BME280;13354;48.174;11.566;2022-12-29T09:59:40;95492.56;;;10.35;40.43
25420;BME280;13354;48.174;11.566;2022-12-29T10:02:36;95489.94;;;10.35;40.56
25420;BME280;13354;48.174;11.566;2022-12-29T10:05:03;95486.69;;;10.40;40.62
25420;BME280;13354;48.174;11.566;2022-12-29T10:07:38;95483.81;;;10.35;41.40
25420;BME280;13354;48.174;11.566;2022-12-29T10:10:18;95480.53;;;10.33;41.03
25420;BME280;13354;48.174;11.566;2022-12-29T10:21:00;95485.50;;;10.43;40.42
25420;BME280;13354;48.174;11.566;2022-12-29T10:23:36;95482.59;;;10.37;40.60
25420;BME280;13354;48.174;11.566;2022-12-29T10:26:05;95491.78;;;10.42;40.60
25420;BME280;13354;48.174;11.566;2022-12-29T10:28:39;95483.28;;;10.46;40.54
25420;BME280;13354;48.174;11.566;2022-12-29T10:31:15;95490.78;;;10.43;40.63
25420;BME280;13354;48.174;11.566;2022-12-29T10:33:42;95481.06;;;10.50;40.79
25420;BME280;13354;48.174;11.566;2022-12-29T10:36:17;95488.00;;;10.57;40.60
25420;BME280;13354;48.174;11.566;2022-12-29T10:38:48;95488.66;;;10.66;40.41
25420;BME280;13354;48.174;11.566;2022-12-29T10:41:28;95478.50;;;10.76;39.78
25420;BME280;13354;48.174;11.566;2022-12-29T10:44:00;95474.88;;;10.84;39.65
25420;BME280;13354;48.174;11.566;2022-12-29T10:46:35;95465.06;;;10.78;40.02
25420;BME280;13354;48.174;11.566;2022-12-29T10:49:01;95465.56;;;11.01;39.41
25420;BME280;13354;48.174;11.566;2022-12-29T10:51:33;95453.50;;;10.92;39.48
25420;BME280;13354;48.174;11.566;2022-12-29T10:54:14;95456.13;;;10.85;39.53
25420;BME280;13354;48.174;11.566;2022-12-29T10:56:48;95461.28;;;11.07;39.89
25420;BME280;13354;48.174;11.566;2022-12-29T11:07:16;95464.16;;;11.19;39.81
25420;BME280;13354;48.174;11.566;2022-12-29T11:09:43;95447.88;;;11.22;39.64
25420;BME280;13354;48.174;11.566;2022-12-29T11:12:29;95449.50;;;11.16;39.58
25420;BME280;13354;48.174;11.566;2022-12-29T11:17:44;95434.63;;;11.48;39.40
25420;BME280;13354;48.174;11.566;2022-12-29T11:22:52;95428.97;;;11.84;38.78
25420;BME280;13354;48.174;11.566;2022-12-29T11:25:18;95428.94;;;11.91;38.40
25420;BME280;13354;48.174;11.566;2022-12-29T11:27:59;95421.78;;;12.12;37.90
25420;BME280;13354;48.174;11.566;2022-12-29T11:30:30;95412.69;;;12.52;37.62
25420;BME280;13354;48.174;11.566;2022-12-29T11:32:56;95407.13;;;12.99;37.34
25420;BME280;13354;48.174;11.566;2022-12-29T11:35:40;95401.59;;;13.07;37.18
25420;BME280;13354;48.174;11.566;2022-12-29T11:38:18;95404.16;;;13.14;36.98
25420;BME280;13354;48.174;11.566;2022-12-29T11:40:45;95401.66;;;13.25;37.11
25420;BME280;13354;48.174;11.566;2022-12-29T11:43:23;95402.38;;;13.39;37.53
25420;BME280;13354;48.174;11.566;2022-12-29T11:45:48;95392.53;;;13.46;37.08
25420;BME280;13354;48.174;11.566;2022-12-29T11:48:17;95395.19;;;13.46;37.20
25420;BME280;13354;48.174;11.566;2022-12-29T11:50:51;95390.03;;;13.51;37.08
25420;BME280;13354;48.174;11.566;2022-12-29T11:56:00;95403.06;;;13.85;36.28
25420;BME280;13354;48.174;11.566;2022-12-29T11:58:35;95405.94;;;14.01;36.38
25420;BME280;13354;48.174;11.566;2022-12-29T12:01:11;95397.59;;;14.16;35.71
25420;BME280;13354;48.174;11.566;2022-12-29T12:03:45;95405.16;;;14.19;35.22
25420;BME280;13354;48.174;11.566;2022-12-29T12:06:15;95400.66;;;14.20;34.99
25420;BME280;13354;48.174;11.566;2022-12-29T12:08:48;95392.91;;;14.37;34.78
25420;BME280;13354;48.174;11.566;2022-12-29T12:11:34;95391.41;;;14.41;34.48
25420;BME280;13354;48.174;11.566;2022-12-29T12:14:15;95397.09;;;14.44;34.49
25420;BME280;13354;48.174;11.566;2022-12-29T12:16:47;95386.69;;;14.61;34.11
25420;BME280;13354;48.174;11.566;2022-12-29T12:19:19;95386.97;;;14.71;34.26
25420;BME280;13354;48.174;11.566;2022-12-29T12:21:52;95373.44;;;14.73;33.75
25420;BME280;13354;48.174;11.566;2022-12-29T12:24:35;95384.59;;;14.45;34.58
25420;BME280;13354;48.174;11.566;2022-12-29T12:32:48;95366.78;;;14.27;36.00
25420;BME280;13354;48.174;11.566;2022-12-29T12:35:38;95370.09;;;14.41;35.16
25420;BME280;13354;48.174;11.566;2022-12-29T12:46:16;95357.91;;;15.12;35.80
25420;BME280;13354;48.174;11.566;2022-12-29T12:54:24;95349.56;;;14.78;37.67
25420;BME280;13354;48.174;11.566;2022-12-29T12:57:02;95357.47;;;14.55;38.89
25420;BME280;13354;48.174;11.566;2022-12-29T12:59:42;95359.75;;;14.33;39.29
25420;BME280;13354;48.174;11.566;2022-12-29T13:10:48;95356.03;;;13.78;40.61
25420;BME280;13354;48.174;11.566;2022-12-29T13:27:24;95357.25;;;13.58;41.66
25420;BME280;13354;48.174;11.566;2022-12-29T13:29:58;95354.75;;;13.38;42.21
25420;BME280;13354;48.174;11.566;2022-12-29T13:38:10;95347.06;;;13.23;42.71
25420;BME280;13354;48.174;11.566;2022-12-29T13:40:41;95343.31;;;13.37;42.69
25420;BME280;13354;48.174;11.566;2022-12-29T13:43:09;95347.97;;;13.42;42.76
25420;BME280;13354;48.174;11.566;2022-12-29T13:45:34;95355.13;;;13.41;42.76
25420;BME280;13354;48.174;11.566;2022-12-29T13:48:14;95352.38;;;13.23;43.45
25420;BME280;13354;48.174;11.566;2022-12-29T13:50:43;95362.41;;;13.27;43.87
25420;BME280;13354;48.174;11.566;2022-12-29T13:53:20;95359.97;;;13.26;43.75
25420;BME280;13354;48.174;11.566;2022-12-29T13:55:58;95361.38;;;13.28;44.01
25420;BME280;13354;48.174;11.566;2022-12-29T13:59:03;95364.94;;;13.09;45.22
25420;BME280;13354;48.174;11.566;2022-12-29T14:01:43;95359.63;;;13.09;45.04
25420;BME280;13354;48.174;11.566;2022-12-29T14:04:16;95351.38;;;13.24;45.02
25420;BME280;13354;48.174;11.566;2022-12-29T14:06:47;95350.06;;;13.08;45.60
25420;BME280;13354;48.174;11.566;2022-12-29T14:09:42;95359.25;;;13.05;45.62
25420;BME280;13354;48.174;11.566;2022-12-29T14:17:39;95359.28;;;12.99;46.90
25420;BME280;13354;48.174;11.566;2022-12-29T14:20:17;95356.13;;;12.84;47.06
25420;BME280;13354;48.174;11.566;2022-12-29T14:25:56;95356.22;;;12.70;47.41
25420;BME280;13354;48.174;11.566;2022-12-29T14:28:28;95358.47;;;12.67;47.82
25420;BME280;13354;48.174;11.566;2022-12-29T14:30:55;95360.13;;;12.61;48.00
25420;BME280;13354;48.174;11.566;2022-12-29T14:33:22;95371.00;;;12.53;48.59
25420;BME280;13354;48.174;11.566;2022-12-29T14:35:49;95364.78;;;12.72;48.17
25420;BME280;13354;48.174;11.566;2022-12-29T14:38:20;95373.63;;;12.60;48.47
25420;BME280;13354;48.174;11.566;2022-12-29T14:40:46;95360.16;;;12.54;49.01
25420;BME280;13354;48.174;11.566;2022-12-29T14:43:18;95379.00;;;12.46;48.75
25420;BME280;13354;48.174;11.566;2022-12-29T14:45:52;95371.66;;;12.48;49.04
25420;BME280;13354;48.174;11.566;2022-12-29T14:48:36;95370.72;;;12.68;48.36
25420;BME280;13354;48.174;11.566;2022-12-29T14:51:16;95378.34;;;12.51;48.91
25420;BME280;13354;48.174;11.566;2022-12-29T14:56:10;95375.56;;;12.39;49.21
25420;BME280;13354;48.174;11.566;2022-12-29T14:58:52;95381.41;;;12.48;48.95
25420;BME280;13354;48.174;11.566;2022-12-29T15:01:26;95383.25;;;12.54;48.95
25420;BME280;13354;48.174;11.566;2022-12-29T15:03:54;95385.31;;;12.52;49.05
25420;BME280;13354;48.174;11.566;2022-12-29T15:06:24;95377.97;;;12.47;49.08
25420;BME280;13354;48.174;11.566;2022-12-29T15:09:03;95381.66;;;12.46;49.15
25420;BME280;13354;48.174;11.566;2022-12-29T15:11:43;95385.09;;;12.53;48.41
25420;BME280;13354;48.174;11.566;2022-12-29T15:14:31;95376.16;;;12.41;48.00